Aviation Digital Data Service (ADDS)

Output produced by METARs form (1919 UTC 09 December 2016)
found at http://aviationweather.gov/adds/metars/
 
KAUG 091730Z 0918/1018 29011G19KT P6SM BKN040 
     FM092100 30010KT P6SM SCT250